createdAt,value
2017-12-01T00:00:01.436Z,430
2017-12-01T00:01:08.351Z,431
2017-12-01T00:02:15.264Z,432
2017-12-01T00:03:22.457Z,432
2017-12-01T00:04:29.638Z,432
2017-12-01T00:05:36.555Z,431
2017-12-01T00:06:43.744Z,432
2017-12-01T00:07:50.934Z,432
2017-12-01T00:08:57.578Z,432
2017-12-01T00:10:04.766Z,429
2017-12-01T00:11:11.407Z,429
2017-12-01T00:12:18.592Z,432
2017-12-01T00:13:25.499Z,432
2017-12-01T00:14:32.688Z,432
2017-12-01T00:15:39.596Z,432
2017-12-01T00:16:46.784Z,434
2017-12-01T00:17:53.970Z,433
2017-12-01T00:19:00.884Z,419
2017-12-01T00:20:07.793Z,423
2017-12-01T00:21:14.993Z,429
2017-12-01T00:22:22.183Z,431
2017-12-01T00:23:29.369Z,428
2017-12-01T00:24:36.285Z,432
2017-12-01T00:25:43.480Z,428
2017-12-01T00:26:50.661Z,430
2017-12-01T00:27:57.847Z,425
2017-12-01T00:29:05.035Z,428
2017-12-01T00:30:11.952Z,430
2017-12-01T00:31:18.588Z,429
2017-12-01T00:32:25.500Z,428
2017-12-01T00:33:32.412Z,428
2017-12-01T00:34:39.603Z,402
2017-12-01T00:35:46.791Z,426
2017-12-01T00:36:53.975Z,425
2017-12-01T00:38:00.888Z,424
2017-12-01T00:39:07.806Z,424
2017-12-01T00:40:14.995Z,421
2017-12-01T00:41:21.916Z,424
2017-12-01T00:42:29.100Z,422
2017-12-01T00:43:36.018Z,423
2017-12-01T00:44:43.224Z,423
2017-12-01T00:45:50.415Z,423
2017-12-01T00:46:57.599Z,422
2017-12-01T00:48:04.787Z,424
2017-12-01T00:49:11.694Z,423
2017-12-01T00:50:18.956Z,421
2017-12-01T00:51:26.146Z,423
2017-12-01T00:52:33.062Z,422
2017-12-01T00:53:39.969Z,421
2017-12-01T00:54:46.883Z,421
2017-12-01T00:55:54.071Z,424
2017-12-01T00:57:00.983Z,422
2017-12-01T00:58:08.172Z,422
2017-12-01T00:59:15.085Z,422
2017-12-01T01:00:22.269Z,421
2017-12-01T01:01:29.180Z,420
2017-12-01T01:02:36.364Z,418
2017-12-01T01:03:43.551Z,418
2017-12-01T01:04:50.738Z,418
2017-12-01T01:05:57.930Z,416
2017-12-01T01:07:04.565Z,417
2017-12-01T01:08:11.476Z,414
2017-12-01T01:09:18.388Z,411
2017-12-01T01:10:25.296Z,410
2017-12-01T01:11:32.503Z,407
2017-12-01T01:12:39.682Z,408
2017-12-01T01:13:46.593Z,408
2017-12-01T01:14:53.508Z,408
2017-12-01T01:16:00.416Z,408
2017-12-01T01:17:07.053Z,407
2017-12-01T01:18:14.242Z,407
2017-12-01T01:19:21.429Z,405
2017-12-01T01:20:28.615Z,404
2017-12-01T01:21:35.798Z,403
2017-12-01T01:22:42.984Z,401
2017-12-01T01:23:49.899Z,402
2017-12-01T01:24:56.532Z,401
2017-12-01T01:26:03.447Z,400
2017-12-01T01:27:10.368Z,399
2017-12-01T01:28:17.548Z,398
2017-12-01T01:29:24.735Z,397
2017-12-01T01:30:31.916Z,396
2017-12-01T01:31:39.100Z,397
2017-12-01T01:32:46.287Z,394
2017-12-01T01:33:53.200Z,394
2017-12-01T01:34:59.838Z,393
2017-12-01T01:36:07.024Z,392
2017-12-01T01:37:13.662Z,392
2017-12-01T01:38:20.293Z,390
2017-12-01T01:39:27.484Z,389
2017-12-01T01:40:34.392Z,389
2017-12-01T01:41:41.579Z,389
2017-12-01T01:42:48.497Z,385
2017-12-01T01:43:55.458Z,386
2017-12-01T01:45:02.670Z,386
2017-12-01T01:46:09.782Z,386
2017-12-01T01:47:16.688Z,384
2017-12-01T01:48:23.596Z,381
2017-12-01T01:49:30.783Z,382
2017-12-01T01:50:37.695Z,383
2017-12-01T01:51:44.893Z,383
2017-12-01T01:52:52.084Z,383
2017-12-01T01:53:58.997Z,382
2017-12-01T01:55:05.908Z,382
2017-12-01T01:56:12.820Z,384
2017-12-01T01:57:19.734Z,382
2017-12-01T01:58:26.664Z,382
2017-12-01T01:59:33.851Z,382
2017-12-01T02:00:41.035Z,381
2017-12-01T02:01:48.226Z,382
2017-12-01T02:02:54.850Z,381
2017-12-01T02:04:02.037Z,380
2017-12-01T02:05:09.223Z,381
2017-12-01T02:06:16.442Z,380
2017-12-01T02:07:23.631Z,380
2017-12-01T02:08:30.548Z,382
2017-12-01T02:09:37.730Z,380
2017-12-01T02:10:44.921Z,379
2017-12-01T02:11:51.839Z,379
2017-12-01T02:12:59.026Z,378
2017-12-01T02:14:05.943Z,380
2017-12-01T02:15:13.133Z,379
2017-12-01T02:16:20.046Z,379
2017-12-01T02:17:26.963Z,379
2017-12-01T02:18:33.873Z,380
2017-12-01T02:19:41.058Z,380
2017-12-01T02:20:47.969Z,381
2017-12-01T02:21:55.159Z,382
2017-12-01T02:23:02.074Z,382
2017-12-01T02:24:09.258Z,382
2017-12-01T02:25:16.171Z,381
2017-12-01T02:26:23.358Z,382
2017-12-01T02:27:30.575Z,381
2017-12-01T02:28:37.492Z,381
2017-12-01T02:29:44.683Z,381
2017-12-01T02:30:51.871Z,381
2017-12-01T02:31:59.060Z,380
2017-12-01T02:33:05.700Z,381
2017-12-01T02:34:12.888Z,379
2017-12-01T02:35:20.030Z,378
2017-12-01T02:36:26.924Z,379
2017-12-01T02:37:34.114Z,379
2017-12-01T02:38:41.302Z,379
2017-12-01T02:39:48.502Z,379
2017-12-01T02:40:55.687Z,378
2017-12-01T02:42:02.873Z,379
2017-12-01T02:43:10.062Z,378
2017-12-01T02:44:16.976Z,378
2017-12-01T02:45:24.164Z,378
2017-12-01T02:46:31.349Z,379
2017-12-01T02:47:38.536Z,380
2017-12-01T02:48:45.756Z,378
2017-12-01T02:49:52.665Z,379
2017-12-01T02:50:59.855Z,376
2017-12-01T02:52:07.043Z,380
2017-12-01T02:53:14.229Z,380
2017-12-01T02:54:21.415Z,378
2017-12-01T02:55:29.005Z,380
2017-12-01T02:56:36.190Z,380
2017-12-01T02:57:43.106Z,380
2017-12-01T02:58:50.026Z,380
2017-12-01T02:59:57.220Z,378
2017-12-01T03:01:04.133Z,377
2017-12-01T03:02:11.323Z,377
2017-12-01T03:03:18.236Z,378
2017-12-01T03:04:25.434Z,376
2017-12-01T03:05:32.626Z,377
2017-12-01T03:06:39.818Z,375
2017-12-01T03:07:46.735Z,376
2017-12-01T03:08:53.922Z,375
2017-12-01T03:10:01.112Z,376
2017-12-01T03:11:08.068Z,375
2017-12-01T03:12:14.978Z,373
2017-12-01T03:13:22.166Z,373
2017-12-01T03:14:29.360Z,374
2017-12-01T03:15:36.278Z,373
2017-12-01T03:16:43.186Z,374
2017-12-01T03:17:50.374Z,374
2017-12-01T03:18:57.291Z,373
2017-12-01T03:20:04.202Z,374
2017-12-01T03:21:11.389Z,371
2017-12-01T03:22:18.581Z,373
2017-12-01T03:23:25.216Z,370
2017-12-01T03:24:32.407Z,373
2017-12-01T03:25:39.597Z,371
2017-12-01T03:26:46.784Z,369
2017-12-01T03:27:53.699Z,368
2017-12-01T03:29:00.888Z,370
2017-12-01T03:30:08.079Z,370
2017-12-01T03:31:15.268Z,367
2017-12-01T03:32:22.453Z,368
2017-12-01T03:33:29.369Z,369
2017-12-01T03:34:36.556Z,369
2017-12-01T03:35:43.199Z,370
2017-12-01T03:36:50.105Z,367
2017-12-01T03:37:57.294Z,369
2017-12-01T03:39:04.490Z,368
2017-12-01T03:40:11.669Z,370
2017-12-01T03:41:18.897Z,368
2017-12-01T03:42:26.080Z,371
2017-12-01T03:43:32.726Z,369
2017-12-01T03:44:39.909Z,368
2017-12-01T03:45:47.093Z,369
2017-12-01T03:46:53.723Z,368
2017-12-01T03:48:00.909Z,370
2017-12-01T03:49:07.819Z,370
2017-12-01T03:50:14.731Z,369
2017-12-01T03:51:21.917Z,368
2017-12-01T03:52:29.102Z,368
2017-12-01T03:53:36.288Z,368
2017-12-01T03:54:43.479Z,367
2017-12-01T03:55:50.664Z,368
2017-12-01T03:56:57.860Z,367
2017-12-01T03:58:05.043Z,368
2017-12-01T03:59:12.234Z,367
2017-12-01T04:00:19.420Z,367
2017-12-01T04:01:26.327Z,367
2017-12-01T04:02:33.544Z,366
2017-12-01T04:03:40.174Z,367
2017-12-01T04:04:47.364Z,366
2017-12-01T04:05:54.571Z,365
2017-12-01T04:07:01.758Z,363
2017-12-01T04:08:08.943Z,362
2017-12-01T04:09:16.136Z,363
2017-12-01T04:10:23.322Z,363
2017-12-01T04:11:30.509Z,363
2017-12-01T04:12:37.697Z,364
2017-12-01T04:13:44.602Z,365
2017-12-01T04:14:51.789Z,364
2017-12-01T04:15:58.704Z,363
2017-12-01T04:17:05.893Z,364
2017-12-01T04:18:12.808Z,364
2017-12-01T04:19:19.720Z,363
2017-12-01T04:20:26.904Z,363
2017-12-01T04:21:34.095Z,362
2017-12-01T04:22:41.285Z,363
2017-12-01T04:23:48.197Z,363
2017-12-01T04:24:55.111Z,361
2017-12-01T04:26:02.298Z,361
2017-12-01T04:27:09.486Z,361
2017-12-01T04:28:16.673Z,361
2017-12-01T04:29:23.590Z,361
2017-12-01T04:30:30.776Z,361
2017-12-01T04:31:37.691Z,361
2017-12-01T04:32:44.873Z,361
2017-12-01T04:33:52.058Z,359
2017-12-01T04:34:59.248Z,359
2017-12-01T04:36:06.430Z,359
2017-12-01T04:37:13.619Z,360
2017-12-01T04:38:20.537Z,361
2017-12-01T04:39:27.735Z,360
2017-12-01T04:40:34.649Z,359
2017-12-01T04:41:41.832Z,359
2017-12-01T04:42:48.743Z,359
2017-12-01T04:43:55.647Z,359
2017-12-01T04:45:02.834Z,359
2017-12-01T04:46:10.020Z,359
2017-12-01T04:47:17.210Z,359
2017-12-01T04:48:24.395Z,360
2017-12-01T04:49:31.303Z,359
2017-12-01T04:50:38.216Z,360
2017-12-01T04:51:45.404Z,360
2017-12-01T04:52:52.316Z,359
2017-12-01T04:53:59.504Z,360
2017-12-01T04:55:06.696Z,360
2017-12-01T04:56:13.886Z,359
2017-12-01T04:57:21.075Z,359
2017-12-01T04:58:28.264Z,358
2017-12-01T04:59:35.170Z,359
2017-12-01T05:00:42.357Z,357
2017-12-01T05:01:49.542Z,358
2017-12-01T05:02:56.461Z,359
2017-12-01T05:04:03.103Z,358
2017-12-01T05:05:10.015Z,357
2017-12-01T05:06:17.202Z,357
2017-12-01T05:07:24.111Z,358
2017-12-01T05:08:31.293Z,358
2017-12-01T05:09:38.485Z,358
2017-12-01T05:10:45.127Z,359
2017-12-01T05:11:52.315Z,358
2017-12-01T05:12:59.225Z,358
2017-12-01T05:14:06.414Z,358
2017-12-01T05:15:13.600Z,358
2017-12-01T05:16:20.791Z,358
2017-12-01T05:17:27.976Z,357
2017-12-01T05:18:34.888Z,358
2017-12-01T05:19:42.069Z,357
2017-12-01T05:20:49.256Z,357
2017-12-01T05:21:56.439Z,356
2017-12-01T05:23:03.627Z,356
2017-12-01T05:24:10.543Z,356
2017-12-01T05:25:17.735Z,355
2017-12-01T05:26:24.369Z,355
2017-12-01T05:27:31.559Z,355
2017-12-01T05:28:38.205Z,355
2017-12-01T05:29:45.119Z,355
2017-12-01T05:30:52.024Z,353
2017-12-01T05:31:59.215Z,354
2017-12-01T05:33:06.401Z,354
2017-12-01T05:34:13.590Z,352
2017-12-01T05:35:20.826Z,352
2017-12-01T05:36:27.992Z,351
2017-12-01T05:37:35.177Z,351
2017-12-01T05:38:42.124Z,350
2017-12-01T05:39:49.310Z,349
2017-12-01T05:40:56.533Z,349
2017-12-01T05:42:03.446Z,348
2017-12-01T05:43:10.372Z,349
2017-12-01T05:44:17.560Z,349
2017-12-01T05:45:24.745Z,350
2017-12-01T05:46:31.660Z,352
2017-12-01T05:47:38.844Z,351
2017-12-01T05:48:46.034Z,350
2017-12-01T05:49:53.223Z,350
2017-12-01T05:51:00.409Z,349
2017-12-01T05:52:07.318Z,348
2017-12-01T05:53:14.508Z,348
2017-12-01T05:54:21.417Z,347
2017-12-01T05:55:28.604Z,347
2017-12-01T05:56:35.518Z,346
2017-12-01T05:57:42.782Z,346
2017-12-01T05:58:49.969Z,346
2017-12-01T05:59:56.877Z,346
2017-12-01T06:01:04.063Z,346
2017-12-01T06:02:10.971Z,346
2017-12-01T06:03:18.160Z,346
2017-12-01T06:04:25.343Z,345
2017-12-01T06:05:32.540Z,345
2017-12-01T06:06:39.454Z,344
2017-12-01T06:07:46.098Z,344
2017-12-01T06:08:53.015Z,343
2017-12-01T06:10:00.219Z,342
2017-12-01T06:11:07.403Z,345
2017-12-01T06:12:14.312Z,346
2017-12-01T06:13:20.939Z,341
2017-12-01T06:14:28.131Z,340
2017-12-01T06:15:35.345Z,341
2017-12-01T06:16:42.264Z,341
2017-12-01T06:17:49.177Z,341
2017-12-01T06:18:55.814Z,340
2017-12-01T06:20:03.010Z,341
2017-12-01T06:21:10.197Z,341
2017-12-01T06:22:17.110Z,342
2017-12-01T06:23:24.019Z,342
2017-12-01T06:24:31.215Z,342
2017-12-01T06:25:38.680Z,342
2017-12-01T06:26:45.627Z,342
2017-12-01T06:27:52.277Z,344
2017-12-01T06:28:59.466Z,343
2017-12-01T06:30:06.381Z,343
2017-12-01T06:31:13.310Z,343
2017-12-01T06:32:20.504Z,343
2017-12-01T06:33:27.680Z,343
2017-12-01T06:34:34.868Z,343
2017-12-01T06:35:41.775Z,342
2017-12-01T06:36:48.411Z,343
2017-12-01T06:37:55.596Z,342
2017-12-01T06:39:02.237Z,342
2017-12-01T06:40:09.428Z,342
2017-12-01T06:41:16.611Z,342
2017-12-01T06:42:23.794Z,342
2017-12-01T06:43:45.350Z,342
2017-12-01T06:44:52.266Z,342
2017-12-01T06:45:59.451Z,342
2017-12-01T06:47:06.365Z,342
2017-12-01T06:48:13.556Z,342
2017-12-01T06:49:20.471Z,342
2017-12-01T06:50:27.379Z,342
2017-12-01T06:51:34.569Z,342
2017-12-01T06:52:41.753Z,342
2017-12-01T06:53:48.938Z,342
2017-12-01T06:54:55.851Z,342
2017-12-01T06:56:03.040Z,341
2017-12-01T06:57:09.956Z,342
2017-12-01T06:58:17.149Z,341
2017-12-01T06:59:24.063Z,342
2017-12-01T07:00:30.979Z,342
2017-12-01T07:01:37.895Z,342
2017-12-01T07:02:45.084Z,342
2017-12-01T07:03:52.267Z,342
2017-12-01T07:04:59.174Z,342
2017-12-01T07:06:06.094Z,342
2017-12-01T07:07:13.272Z,342
2017-12-01T07:08:20.458Z,342
2017-12-01T07:09:27.643Z,342
2017-12-01T07:10:34.834Z,342
2017-12-01T07:11:41.744Z,342
2017-12-01T07:12:48.936Z,341
2017-12-01T07:13:56.231Z,341
2017-12-01T07:15:03.421Z,341
2017-12-01T07:16:10.334Z,341
2017-12-01T07:17:16.972Z,342
2017-12-01T07:18:23.879Z,341
2017-12-01T07:19:30.794Z,341
2017-12-01T07:20:38.008Z,340
2017-12-01T07:21:44.642Z,341
2017-12-01T07:22:51.827Z,341
2017-12-01T07:23:59.012Z,341
2017-12-01T07:25:05.918Z,341
2017-12-01T07:26:13.104Z,340
2017-12-01T07:27:20.293Z,340
2017-12-01T07:28:27.203Z,341
2017-12-01T07:29:33.837Z,342
2017-12-01T07:30:41.024Z,343
2017-12-01T07:31:47.935Z,344
2017-12-01T07:32:55.122Z,345
2017-12-01T07:34:02.313Z,344
2017-12-01T07:35:09.501Z,346
2017-12-01T07:36:16.412Z,347
2017-12-01T07:37:23.322Z,348
2017-12-01T07:38:29.960Z,349
2017-12-01T07:39:36.604Z,349
2017-12-01T07:40:43.513Z,349
2017-12-01T07:41:50.694Z,350
2017-12-01T07:42:57.609Z,350
2017-12-01T07:44:04.799Z,350
2017-12-01T07:45:11.708Z,350
2017-12-01T07:46:18.627Z,350
2017-12-01T07:47:25.532Z,346
2017-12-01T07:48:32.723Z,343
2017-12-01T07:49:39.908Z,337
2017-12-01T07:50:46.821Z,332
2017-12-01T07:51:54.009Z,326
2017-12-01T07:53:01.230Z,320
2017-12-01T07:54:08.398Z,314
2017-12-01T07:55:15.582Z,308
2017-12-01T07:56:22.774Z,301
2017-12-01T07:57:29.964Z,295
2017-12-01T07:58:37.147Z,290
2017-12-01T07:59:44.069Z,288
2017-12-01T08:00:51.260Z,287
2017-12-01T08:01:58.172Z,287
2017-12-01T08:03:05.359Z,288
2017-12-01T08:04:12.548Z,288
2017-12-01T08:05:19.741Z,290
2017-12-01T08:06:26.656Z,292
2017-12-01T08:07:33.846Z,293
2017-12-01T08:08:40.755Z,295
2017-12-01T08:09:47.658Z,296
2017-12-01T08:10:54.844Z,297
2017-12-01T08:12:01.763Z,298
2017-12-01T08:13:08.676Z,300
2017-12-01T08:14:15.863Z,301
2017-12-01T08:15:22.801Z,303
2017-12-01T08:16:29.712Z,305
2017-12-01T08:17:36.905Z,307
2017-12-01T08:18:43.815Z,309
2017-12-01T08:19:50.731Z,310
2017-12-01T08:20:57.645Z,312
2017-12-01T08:22:04.832Z,313
2017-12-01T08:23:11.769Z,315
2017-12-01T08:24:18.404Z,316
2017-12-01T08:25:25.593Z,317
2017-12-01T08:26:32.787Z,318
2017-12-01T08:27:39.977Z,319
2017-12-01T08:28:47.168Z,320
2017-12-01T08:29:54.358Z,321
2017-12-01T08:31:01.543Z,321
2017-12-01T08:32:08.737Z,322
2017-12-01T08:33:15.922Z,323
2017-12-01T08:34:22.559Z,324
2017-12-01T08:35:29.203Z,324
2017-12-01T08:36:35.833Z,325
2017-12-01T08:37:42.745Z,325
2017-12-01T08:38:49.388Z,326
2017-12-01T08:39:56.572Z,327
2017-12-01T08:41:03.757Z,327
2017-12-01T08:42:10.673Z,328
2017-12-01T08:43:17.579Z,329
2017-12-01T08:44:24.761Z,329
2017-12-01T08:45:31.947Z,330
2017-12-01T08:46:38.858Z,331
2017-12-01T08:47:46.050Z,331
2017-12-01T08:48:53.234Z,332
2017-12-01T08:50:00.142Z,334
2017-12-01T08:51:07.342Z,335
2017-12-01T08:52:14.526Z,335
2017-12-01T08:53:21.436Z,337
2017-12-01T08:54:28.350Z,342
2017-12-01T08:55:35.262Z,347
2017-12-01T08:56:42.187Z,349
2017-12-01T08:57:49.364Z,351
2017-12-01T08:58:56.545Z,352
2017-12-01T09:00:03.738Z,353
2017-12-01T09:01:10.663Z,355
2017-12-01T09:02:17.571Z,356
